sensor_id;sensor_type;location;lat;lon;timestamp;P1;durP1;ratioP1;P2;durP2;ratioP2
42978;SDS011;28616;44.746;19.678;2023-04-10T00:00:08;83.30;;;37.17;;
42978;SDS011;28616;44.746;19.678;2023-04-10T00:02:34;79.78;;;39.85;;
42978;SDS011;28616;44.746;19.678;2023-04-10T00:05:02;87.95;;;39.25;;
42978;SDS011;28616;44.746;19.678;2023-04-10T00:07:28;84.57;;;37.33;;
42978;SDS011;28616;44.746;19.678;2023-04-10T00:09:54;82.55;;;37.00;;
42978;SDS011;28616;44.746;19.678;2023-04-10T00:12:20;76.25;;;34.67;;
42978;SDS011;28616;44.746;19.678;2023-04-10T00:14:46;84.57;;;35.83;;
42978;SDS011;28616;44.746;19.678;2023-04-10T00:17:11;78.13;;;34.97;;
42978;SDS011;28616;44.746;19.678;2023-04-10T00:19:37;102.15;;;40.63;;
42978;SDS011;28616;44.746;19.678;2023-04-10T00:22:03;103.68;;;43.05;;
42978;SDS011;28616;44.746;19.678;2023-04-10T00:24:29;110.68;;;44.30;;
42978;SDS011;28616;44.746;19.678;2023-04-10T00:26:55;93.85;;;38.67;;
42978;SDS011;28616;44.746;19.678;2023-04-10T00:29:21;100.78;;;42.25;;
42978;SDS011;28616;44.746;19.678;2023-04-10T00:31:47;95.88;;;41.95;;
42978;SDS011;28616;44.746;19.678;2023-04-10T00:34:14;85.82;;;38.22;;
42978;SDS011;28616;44.746;19.678;2023-04-10T00:36:40;93.63;;;40.53;;
42978;SDS011;28616;44.746;19.678;2023-04-10T00:39:07;91.18;;;39.05;;
42978;SDS011;28616;44.746;19.678;2023-04-10T00:41:33;86.07;;;37.83;;
42978;SDS011;28616;44.746;19.678;2023-04-10T00:43:59;81.28;;;36.90;;
42978;SDS011;28616;44.746;19.678;2023-04-10T00:46:25;78.13;;;37.45;;
42978;SDS011;28616;44.746;19.678;2023-04-10T00:48:52;87.13;;;36.60;;
42978;SDS011;28616;44.746;19.678;2023-04-10T00:51:19;85.93;;;37.97;;
42978;SDS011;28616;44.746;19.678;2023-04-10T00:53:49;88.85;;;36.30;;
42978;SDS011;28616;44.746;19.678;2023-04-10T00:56:16;82.10;;;35.67;;
42978;SDS011;28616;44.746;19.678;2023-04-10T00:58:43;79.03;;;36.40;;
42978;SDS011;28616;44.746;19.678;2023-04-10T01:01:09;77.13;;;35.92;;
42978;SDS011;28616;44.746;19.678;2023-04-10T01:03:35;78.57;;;34.90;;
42978;SDS011;28616;44.746;19.678;2023-04-10T01:09:40;73.72;;;32.42;;
42978;SDS011;28616;44.746;19.678;2023-04-10T01:17:37;63.25;;;31.08;;
42978;SDS011;28616;44.746;19.678;2023-04-10T01:20:22;71.13;;;32.45;;
42978;SDS011;28616;44.746;19.678;2023-04-10T01:23:07;73.43;;;32.30;;
42978;SDS011;28616;44.746;19.678;2023-04-10T01:28:22;69.50;;;30.52;;
42978;SDS011;28616;44.746;19.678;2023-04-10T01:31:08;66.22;;;29.63;;
42978;SDS011;28616;44.746;19.678;2023-04-10T01:33:40;62.40;;;27.55;;
42978;SDS011;28616;44.746;19.678;2023-04-10T01:36:11;64.72;;;28.48;;
42978;SDS011;28616;44.746;19.678;2023-04-10T01:38:46;63.17;;;28.73;;
42978;SDS011;28616;44.746;19.678;2023-04-10T01:41:15;66.97;;;28.38;;
42978;SDS011;28616;44.746;19.678;2023-04-10T01:43:42;69.95;;;30.40;;
42978;SDS011;28616;44.746;19.678;2023-04-10T01:46:15;71.72;;;30.60;;
42978;SDS011;28616;44.746;19.678;2023-04-10T01:48:43;66.57;;;28.85;;
42978;SDS011;28616;44.746;19.678;2023-04-10T01:51:11;66.38;;;28.70;;
42978;SDS011;28616;44.746;19.678;2023-04-10T01:53:39;70.65;;;30.67;;
42978;SDS011;28616;44.746;19.678;2023-04-10T01:56:07;79.72;;;33.28;;
42978;SDS011;28616;44.746;19.678;2023-04-10T01:58:34;74.63;;;30.60;;
42978;SDS011;28616;44.746;19.678;2023-04-10T02:01:00;70.85;;;30.95;;
42978;SDS011;28616;44.746;19.678;2023-04-10T02:03:26;69.65;;;30.52;;
42978;SDS011;28616;44.746;19.678;2023-04-10T02:06:14;62.33;;;27.73;;
42978;SDS011;28616;44.746;19.678;2023-04-10T02:11:51;65.72;;;28.25;;
42978;SDS011;28616;44.746;19.678;2023-04-10T02:14:22;69.35;;;27.80;;
42978;SDS011;28616;44.746;19.678;2023-04-10T02:16:52;68.68;;;28.48;;
42978;SDS011;28616;44.746;19.678;2023-04-10T02:19:20;69.20;;;33.55;;
42978;SDS011;28616;44.746;19.678;2023-04-10T02:21:48;58.53;;;26.75;;
42978;SDS011;28616;44.746;19.678;2023-04-10T02:24:15;54.88;;;26.15;;
42978;SDS011;28616;44.746;19.678;2023-04-10T02:26:45;62.65;;;27.98;;
42978;SDS011;28616;44.746;19.678;2023-04-10T02:29:12;55.92;;;26.35;;
42978;SDS011;28616;44.746;19.678;2023-04-10T02:31:39;55.92;;;24.88;;
42978;SDS011;28616;44.746;19.678;2023-04-10T02:34:06;55.53;;;26.52;;
42978;SDS011;28616;44.746;19.678;2023-04-10T02:36:32;55.30;;;25.08;;
42978;SDS011;28616;44.746;19.678;2023-04-10T02:38:59;55.80;;;23.98;;
42978;SDS011;28616;44.746;19.678;2023-04-10T02:41:25;52.65;;;24.25;;
42978;SDS011;28616;44.746;19.678;2023-04-10T02:43:51;46.17;;;22.67;;
42978;SDS011;28616;44.746;19.678;2023-04-10T02:46:16;46.38;;;22.83;;
42978;SDS011;28616;44.746;19.678;2023-04-10T02:48:42;50.30;;;21.98;;
42978;SDS011;28616;44.746;19.678;2023-04-10T02:51:08;45.05;;;22.17;;
42978;SDS011;28616;44.746;19.678;2023-04-10T02:53:33;49.90;;;24.45;;
42978;SDS011;28616;44.746;19.678;2023-04-10T02:55:59;49.90;;;22.92;;
42978;SDS011;28616;44.746;19.678;2023-04-10T02:58:26;45.95;;;22.35;;
42978;SDS011;28616;44.746;19.678;2023-04-10T03:00:54;48.78;;;21.77;;
42978;SDS011;28616;44.746;19.678;2023-04-10T03:03:20;49.05;;;22.20;;
42978;SDS011;28616;44.746;19.678;2023-04-10T03:05:46;44.55;;;22.27;;
42978;SDS011;28616;44.746;19.678;2023-04-10T03:08:13;49.70;;;23.60;;
42978;SDS011;28616;44.746;19.678;2023-04-10T03:10:39;47.30;;;22.75;;
42978;SDS011;28616;44.746;19.678;2023-04-10T03:13:07;52.65;;;23.65;;
42978;SDS011;28616;44.746;19.678;2023-04-10T03:15:33;45.60;;;21.63;;
42978;SDS011;28616;44.746;19.678;2023-04-10T03:17:59;45.10;;;21.15;;
42978;SDS011;28616;44.746;19.678;2023-04-10T03:20:25;41.75;;;20.15;;
42978;SDS011;28616;44.746;19.678;2023-04-10T03:22:51;44.33;;;20.92;;
42978;SDS011;28616;44.746;19.678;2023-04-10T03:25:16;45.60;;;21.45;;
42978;SDS011;28616;44.746;19.678;2023-04-10T03:27:42;41.92;;;20.08;;
42978;SDS011;28616;44.746;19.678;2023-04-10T03:30:08;41.00;;;20.92;;
42978;SDS011;28616;44.746;19.678;2023-04-10T03:32:33;42.65;;;20.77;;
42978;SDS011;28616;44.746;19.678;2023-04-10T03:34:59;45.33;;;24.15;;
42978;SDS011;28616;44.746;19.678;2023-04-10T03:37:25;44.63;;;22.58;;
42978;SDS011;28616;44.746;19.678;2023-04-10T03:39:53;43.42;;;22.95;;
42978;SDS011;28616;44.746;19.678;2023-04-10T03:42:19;48.85;;;21.88;;
42978;SDS011;28616;44.746;19.678;2023-04-10T03:44:45;43.17;;;22.02;;
42978;SDS011;28616;44.746;19.678;2023-04-10T03:47:11;51.30;;;24.55;;
42978;SDS011;28616;44.746;19.678;2023-04-10T03:49:37;52.85;;;24.48;;
42978;SDS011;28616;44.746;19.678;2023-04-10T03:52:03;53.55;;;25.98;;
42978;SDS011;28616;44.746;19.678;2023-04-10T03:54:29;50.17;;;24.73;;
42978;SDS011;28616;44.746;19.678;2023-04-10T03:56:54;52.13;;;25.95;;
42978;SDS011;28616;44.746;19.678;2023-04-10T03:59:21;55.33;;;25.60;;
42978;SDS011;28616;44.746;19.678;2023-04-10T04:01:46;52.83;;;25.67;;
42978;SDS011;28616;44.746;19.678;2023-04-10T04:04:12;51.88;;;25.40;;
42978;SDS011;28616;44.746;19.678;2023-04-10T04:06:38;45.58;;;22.92;;
42978;SDS011;28616;44.746;19.678;2023-04-10T04:09:04;45.70;;;22.25;;
42978;SDS011;28616;44.746;19.678;2023-04-10T04:11:30;46.90;;;22.67;;
42978;SDS011;28616;44.746;19.678;2023-04-10T04:13:56;55.08;;;26.67;;
42978;SDS011;28616;44.746;19.678;2023-04-10T04:16:21;68.50;;;34.15;;
42978;SDS011;28616;44.746;19.678;2023-04-10T04:18:47;63.83;;;32.00;;
42978;SDS011;28616;44.746;19.678;2023-04-10T04:21:13;67.78;;;33.90;;
42978;SDS011;28616;44.746;19.678;2023-04-10T04:23:39;71.85;;;38.55;;
42978;SDS011;28616;44.746;19.678;2023-04-10T04:26:04;56.58;;;27.58;;
42978;SDS011;28616;44.746;19.678;2023-04-10T04:28:30;57.60;;;27.27;;
42978;SDS011;28616;44.746;19.678;2023-04-10T04:30:56;56.97;;;27.48;;
42978;SDS011;28616;44.746;19.678;2023-04-10T04:33:22;52.53;;;24.67;;
42978;SDS011;28616;44.746;19.678;2023-04-10T04:35:48;59.80;;;26.38;;
42978;SDS011;28616;44.746;19.678;2023-04-10T04:38:14;58.20;;;28.08;;
42978;SDS011;28616;44.746;19.678;2023-04-10T04:40:40;58.08;;;27.02;;
42978;SDS011;28616;44.746;19.678;2023-04-10T04:43:06;59.90;;;29.15;;
42978;SDS011;28616;44.746;19.678;2023-04-10T04:45:32;64.80;;;29.23;;
42978;SDS011;28616;44.746;19.678;2023-04-10T04:47:58;52.55;;;25.83;;
42978;SDS011;28616;44.746;19.678;2023-04-10T04:50:23;53.13;;;25.92;;
42978;SDS011;28616;44.746;19.678;2023-04-10T04:52:49;53.58;;;24.77;;
42978;SDS011;28616;44.746;19.678;2023-04-10T04:55:15;47.22;;;22.95;;
42978;SDS011;28616;44.746;19.678;2023-04-10T04:57:41;50.20;;;26.35;;
42978;SDS011;28616;44.746;19.678;2023-04-10T05:00:06;51.20;;;24.58;;
42978;SDS011;28616;44.746;19.678;2023-04-10T05:02:32;56.30;;;27.83;;
42978;SDS011;28616;44.746;19.678;2023-04-10T05:04:58;57.15;;;27.48;;
42978;SDS011;28616;44.746;19.678;2023-04-10T05:07:24;57.90;;;29.20;;
42978;SDS011;28616;44.746;19.678;2023-04-10T05:09:51;58.25;;;28.83;;
42978;SDS011;28616;44.746;19.678;2023-04-10T05:12:16;58.53;;;29.20;;
42978;SDS011;28616;44.746;19.678;2023-04-10T05:14:42;54.63;;;26.45;;
42978;SDS011;28616;44.746;19.678;2023-04-10T05:17:08;55.63;;;29.30;;
42978;SDS011;28616;44.746;19.678;2023-04-10T05:19:36;53.70;;;27.20;;
42978;SDS011;28616;44.746;19.678;2023-04-10T05:22:02;59.92;;;27.63;;
42978;SDS011;28616;44.746;19.678;2023-04-10T05:24:28;53.15;;;25.83;;
42978;SDS011;28616;44.746;19.678;2023-04-10T05:26:53;54.63;;;26.25;;
42978;SDS011;28616;44.746;19.678;2023-04-10T05:29:19;55.65;;;27.58;;
42978;SDS011;28616;44.746;19.678;2023-04-10T05:31:45;54.25;;;25.35;;
42978;SDS011;28616;44.746;19.678;2023-04-10T05:34:11;49.20;;;25.25;;
42978;SDS011;28616;44.746;19.678;2023-04-10T05:36:36;53.25;;;27.08;;
42978;SDS011;28616;44.746;19.678;2023-04-10T05:39:02;61.30;;;29.50;;
42978;SDS011;28616;44.746;19.678;2023-04-10T05:41:28;62.80;;;30.67;;
42978;SDS011;28616;44.746;19.678;2023-04-10T05:43:54;46.80;;;26.30;;
42978;SDS011;28616;44.746;19.678;2023-04-10T05:46:19;53.13;;;26.42;;
42978;SDS011;28616;44.746;19.678;2023-04-10T05:48:45;45.42;;;23.52;;
42978;SDS011;28616;44.746;19.678;2023-04-10T05:51:11;46.95;;;24.60;;
42978;SDS011;28616;44.746;19.678;2023-04-10T05:53:36;52.97;;;25.73;;
42978;SDS011;28616;44.746;19.678;2023-04-10T05:56:02;46.05;;;23.45;;
42978;SDS011;28616;44.746;19.678;2023-04-10T05:58:28;49.88;;;25.73;;
42978;SDS011;28616;44.746;19.678;2023-04-10T06:00:54;51.47;;;27.40;;
42978;SDS011;28616;44.746;19.678;2023-04-10T06:03:20;53.25;;;34.50;;
42978;SDS011;28616;44.746;19.678;2023-04-10T06:05:46;51.20;;;28.63;;
42978;SDS011;28616;44.746;19.678;2023-04-10T06:08:12;53.80;;;28.30;;
42978;SDS011;28616;44.746;19.678;2023-04-10T06:10:37;52.78;;;35.28;;
42978;SDS011;28616;44.746;19.678;2023-04-10T06:13:03;47.28;;;26.25;;
42978;SDS011;28616;44.746;19.678;2023-04-10T06:15:29;47.35;;;27.40;;
42978;SDS011;28616;44.746;19.678;2023-04-10T06:17:55;42.75;;;24.10;;
42978;SDS011;28616;44.746;19.678;2023-04-10T06:20:20;48.83;;;27.65;;
42978;SDS011;28616;44.746;19.678;2023-04-10T06:22:46;41.28;;;22.33;;
42978;SDS011;28616;44.746;19.678;2023-04-10T06:25:12;46.83;;;27.50;;
42978;SDS011;28616;44.746;19.678;2023-04-10T06:27:38;48.63;;;28.20;;
42978;SDS011;28616;44.746;19.678;2023-04-10T06:30:04;46.22;;;23.80;;
42978;SDS011;28616;44.746;19.678;2023-04-10T06:32:30;45.08;;;23.73;;
42978;SDS011;28616;44.746;19.678;2023-04-10T06:34:56;53.22;;;28.27;;
42978;SDS011;28616;44.746;19.678;2023-04-10T06:37:28;47.70;;;25.92;;
42978;SDS011;28616;44.746;19.678;2023-04-10T06:40:02;50.08;;;24.23;;
42978;SDS011;28616;44.746;19.678;2023-04-10T06:42:35;49.15;;;24.42;;
42978;SDS011;28616;44.746;19.678;2023-04-10T06:45:02;50.85;;;25.65;;
42978;SDS011;28616;44.746;19.678;2023-04-10T06:47:28;46.50;;;23.85;;
42978;SDS011;28616;44.746;19.678;2023-04-10T06:49:55;46.60;;;24.02;;
42978;SDS011;28616;44.746;19.678;2023-04-10T06:52:21;47.33;;;24.85;;
42978;SDS011;28616;44.746;19.678;2023-04-10T06:54:47;57.03;;;29.77;;
42978;SDS011;28616;44.746;19.678;2023-04-10T06:57:12;52.70;;;27.42;;
42978;SDS011;28616;44.746;19.678;2023-04-10T06:59:38;52.80;;;24.83;;
42978;SDS011;28616;44.746;19.678;2023-04-10T07:02:04;48.67;;;24.50;;
42978;SDS011;28616;44.746;19.678;2023-04-10T07:04:31;53.65;;;27.33;;
42978;SDS011;28616;44.746;19.678;2023-04-10T07:06:57;46.40;;;24.02;;
42978;SDS011;28616;44.746;19.678;2023-04-10T07:09:25;44.20;;;23.10;;
42978;SDS011;28616;44.746;19.678;2023-04-10T07:11:51;41.72;;;22.00;;
42978;SDS011;28616;44.746;19.678;2023-04-10T07:14:17;46.67;;;24.75;;
42978;SDS011;28616;44.746;19.678;2023-04-10T07:16:43;43.72;;;21.77;;
42978;SDS011;28616;44.746;19.678;2023-04-10T07:19:09;54.35;;;25.27;;
42978;SDS011;28616;44.746;19.678;2023-04-10T07:21:35;38.80;;;22.02;;
42978;SDS011;28616;44.746;19.678;2023-04-10T07:24:01;45.30;;;22.80;;
42978;SDS011;28616;44.746;19.678;2023-04-10T07:26:26;45.83;;;22.15;;
42978;SDS011;28616;44.746;19.678;2023-04-10T07:28:52;51.47;;;25.05;;
42978;SDS011;28616;44.746;19.678;2023-04-10T07:31:18;44.30;;;23.30;;
42978;SDS011;28616;44.746;19.678;2023-04-10T07:33:44;45.15;;;22.83;;
42978;SDS011;28616;44.746;19.678;2023-04-10T07:36:12;46.22;;;22.48;;
42978;SDS011;28616;44.746;19.678;2023-04-10T07:38:38;54.50;;;24.00;;
42978;SDS011;28616;44.746;19.678;2023-04-10T07:41:05;42.92;;;22.00;;
42978;SDS011;28616;44.746;19.678;2023-04-10T07:43:31;41.22;;;23.00;;
42978;SDS011;28616;44.746;19.678;2023-04-10T07:45:57;38.70;;;20.70;;
42978;SDS011;28616;44.746;19.678;2023-04-10T07:48:22;44.13;;;22.00;;
42978;SDS011;28616;44.746;19.678;2023-04-10T07:50:48;44.35;;;22.17;;
42978;SDS011;28616;44.746;19.678;2023-04-10T07:53:14;47.33;;;22.83;;
42978;SDS011;28616;44.746;19.678;2023-04-10T07:55:44;47.60;;;24.40;;
42978;SDS011;28616;44.746;19.678;2023-04-10T07:58:13;40.13;;;22.05;;
42978;SDS011;28616;44.746;19.678;2023-04-10T08:00:40;44.10;;;21.92;;
42978;SDS011;28616;44.746;19.678;2023-04-10T08:03:06;42.92;;;25.30;;
42978;SDS011;28616;44.746;19.678;2023-04-10T08:05:32;41.47;;;21.92;;
42978;SDS011;28616;44.746;19.678;2023-04-10T08:07:58;44.50;;;23.23;;
42978;SDS011;28616;44.746;19.678;2023-04-10T08:10:24;46.50;;;23.08;;
42978;SDS011;28616;44.746;19.678;2023-04-10T08:12:50;47.47;;;24.17;;
42978;SDS011;28616;44.746;19.678;2023-04-10T08:15:22;46.10;;;23.35;;
42978;SDS011;28616;44.746;19.678;2023-04-10T08:17:47;49.10;;;24.08;;
42978;SDS011;28616;44.746;19.678;2023-04-10T08:20:13;51.83;;;28.23;;
42978;SDS011;28616;44.746;19.678;2023-04-10T08:22:42;85.38;;;38.05;;
42978;SDS011;28616;44.746;19.678;2023-04-10T08:25:08;58.42;;;30.58;;
42978;SDS011;28616;44.746;19.678;2023-04-10T08:27:34;45.63;;;22.08;;
42978;SDS011;28616;44.746;19.678;2023-04-10T08:30:00;48.28;;;23.13;;
42978;SDS011;28616;44.746;19.678;2023-04-10T08:32:26;88.70;;;36.95;;
42978;SDS011;28616;44.746;19.678;2023-04-10T08:34:53;109.93;;;46.88;;
42978;SDS011;28616;44.746;19.678;2023-04-10T08:37:18;56.00;;;25.92;;
42978;SDS011;28616;44.746;19.678;2023-04-10T08:39:45;53.35;;;24.33;;
42978;SDS011;28616;44.746;19.678;2023-04-10T08:42:11;69.35;;;33.95;;
42978;SDS011;28616;44.746;19.678;2023-04-10T08:44:37;59.58;;;30.40;;
42978;SDS011;28616;44.746;19.678;2023-04-10T08:47:04;47.95;;;24.75;;
42978;SDS011;28616;44.746;19.678;2023-04-10T08:49:30;50.38;;;25.80;;
42978;SDS011;28616;44.746;19.678;2023-04-10T08:51:59;45.20;;;22.95;;
42978;SDS011;28616;44.746;19.678;2023-04-10T08:54:31;58.97;;;30.95;;
42978;SDS011;28616;44.746;19.678;2023-04-10T08:56:58;43.33;;;21.90;;
42978;SDS011;28616;44.746;19.678;2023-04-10T08:59:28;45.83;;;23.15;;
42978;SDS011;28616;44.746;19.678;2023-04-10T09:01:55;46.95;;;21.90;;
42978;SDS011;28616;44.746;19.678;2023-04-10T09:04:22;42.92;;;21.00;;
42978;SDS011;28616;44.746;19.678;2023-04-10T09:06:49;47.88;;;22.42;;
42978;SDS011;28616;44.746;19.678;2023-04-10T09:09:14;48.85;;;22.02;;
42978;SDS011;28616;44.746;19.678;2023-04-10T09:14:25;39.92;;;19.35;;
42978;SDS011;28616;44.746;19.678;2023-04-10T09:16:53;45.40;;;20.55;;
42978;SDS011;28616;44.746;19.678;2023-04-10T09:19:33;44.07;;;22.80;;
42978;SDS011;28616;44.746;19.678;2023-04-10T09:21:59;48.17;;;22.88;;
42978;SDS011;28616;44.746;19.678;2023-04-10T09:24:25;48.60;;;23.85;;
42978;SDS011;28616;44.746;19.678;2023-04-10T09:26:51;34.05;;;19.95;;
42978;SDS011;28616;44.746;19.678;2023-04-10T09:29:17;42.15;;;20.52;;
42978;SDS011;28616;44.746;19.678;2023-04-10T09:31:43;36.78;;;20.10;;
42978;SDS011;28616;44.746;19.678;2023-04-10T09:34:13;39.40;;;20.15;;
42978;SDS011;28616;44.746;19.678;2023-04-10T09:36:48;40.15;;;20.73;;
42978;SDS011;28616;44.746;19.678;2023-04-10T09:39:21;38.25;;;20.42;;
42978;SDS011;28616;44.746;19.678;2023-04-10T09:42:05;36.42;;;19.38;;
42978;SDS011;28616;44.746;19.678;2023-04-10T09:44:34;37.60;;;19.23;;
42978;SDS011;28616;44.746;19.678;2023-04-10T09:47:14;42.17;;;21.00;;
42978;SDS011;28616;44.746;19.678;2023-04-10T09:49:51;43.10;;;21.75;;
42978;SDS011;28616;44.746;19.678;2023-04-10T09:54:48;34.08;;;18.73;;
42978;SDS011;28616;44.746;19.678;2023-04-10T09:57:15;34.05;;;18.40;;
42978;SDS011;28616;44.746;19.678;2023-04-10T09:59:55;45.25;;;22.67;;
42978;SDS011;28616;44.746;19.678;2023-04-10T10:02:28;40.53;;;19.95;;
42978;SDS011;28616;44.746;19.678;2023-04-10T10:04:55;34.78;;;19.02;;
42978;SDS011;28616;44.746;19.678;2023-04-10T10:07:24;39.65;;;20.73;;
42978;SDS011;28616;44.746;19.678;2023-04-10T10:09:51;36.92;;;18.85;;
42978;SDS011;28616;44.746;19.678;2023-04-10T10:12:39;37.45;;;19.90;;
42978;SDS011;28616;44.746;19.678;2023-04-10T10:17:51;35.35;;;18.83;;
42978;SDS011;28616;44.746;19.678;2023-04-10T10:20:25;35.58;;;17.95;;
42978;SDS011;28616;44.746;19.678;2023-04-10T10:22:52;40.05;;;20.05;;
42978;SDS011;28616;44.746;19.678;2023-04-10T10:25:18;45.83;;;22.38;;
42978;SDS011;28616;44.746;19.678;2023-04-10T10:27:44;34.83;;;19.35;;
42978;SDS011;28616;44.746;19.678;2023-04-10T10:30:13;32.03;;;17.85;;
42978;SDS011;28616;44.746;19.678;2023-04-10T10:32:43;35.50;;;19.05;;
42978;SDS011;28616;44.746;19.678;2023-04-10T10:35:09;54.25;;;24.23;;
42978;SDS011;28616;44.746;19.678;2023-04-10T10:37:36;35.88;;;19.52;;
42978;SDS011;28616;44.746;19.678;2023-04-10T10:40:13;35.28;;;18.50;;
42978;SDS011;28616;44.746;19.678;2023-04-10T10:48:26;53.60;;;28.92;;
42978;SDS011;28616;44.746;19.678;2023-04-10T10:50:52;39.05;;;22.05;;
42978;SDS011;28616;44.746;19.678;2023-04-10T10:53:30;32.38;;;17.80;;
42978;SDS011;28616;44.746;19.678;2023-04-10T11:01:12;34.03;;;19.08;;
42978;SDS011;28616;44.746;19.678;2023-04-10T11:03:38;32.78;;;17.58;;
42978;SDS011;28616;44.746;19.678;2023-04-10T11:06:09;38.60;;;20.80;;
42978;SDS011;28616;44.746;19.678;2023-04-10T11:08:46;31.33;;;18.50;;
42978;SDS011;28616;44.746;19.678;2023-04-10T11:16:22;32.92;;;19.17;;
42978;SDS011;28616;44.746;19.678;2023-04-10T11:19:08;36.65;;;21.48;;
42978;SDS011;28616;44.746;19.678;2023-04-10T11:22:01;43.35;;;22.33;;
42978;SDS011;28616;44.746;19.678;2023-04-10T11:24:51;45.63;;;23.25;;
42978;SDS011;28616;44.746;19.678;2023-04-10T11:30:28;41.33;;;21.73;;
42978;SDS011;28616;44.746;19.678;2023-04-10T11:32:58;27.83;;;17.00;;
42978;SDS011;28616;44.746;19.678;2023-04-10T11:35:25;36.42;;;19.60;;
42978;SDS011;28616;44.746;19.678;2023-04-10T11:40:53;37.15;;;20.73;;
42978;SDS011;28616;44.746;19.678;2023-04-10T11:43:27;42.47;;;21.02;;
42978;SDS011;28616;44.746;19.678;2023-04-10T11:46:00;39.58;;;20.55;;
42978;SDS011;28616;44.746;19.678;2023-04-10T11:48:28;39.67;;;19.95;;
42978;SDS011;28616;44.746;19.678;2023-04-10T11:50:54;35.58;;;21.15;;
42978;SDS011;28616;44.746;19.678;2023-04-10T11:53:24;34.85;;;19.33;;
42978;SDS011;28616;44.746;19.678;2023-04-10T11:55:50;41.92;;;21.65;;
42978;SDS011;28616;44.746;19.678;2023-04-10T11:58:26;33.58;;;18.75;;
42978;SDS011;28616;44.746;19.678;2023-04-10T12:01:00;33.75;;;19.08;;
42978;SDS011;28616;44.746;19.678;2023-04-10T12:03:33;29.73;;;17.70;;
42978;SDS011;28616;44.746;19.678;2023-04-10T12:06:01;39.53;;;18.67;;
42978;SDS011;28616;44.746;19.678;2023-04-10T12:08:43;34.80;;;19.85;;
42978;SDS011;28616;44.746;19.678;2023-04-10T12:11:11;36.63;;;19.10;;
42978;SDS011;28616;44.746;19.678;2023-04-10T12:13:40;34.00;;;18.58;;
42978;SDS011;28616;44.746;19.678;2023-04-10T12:16:07;29.80;;;19.00;;
42978;SDS011;28616;44.746;19.678;2023-04-10T12:18:33;29.98;;;18.15;;
42978;SDS011;28616;44.746;19.678;2023-04-10T12:21:03;34.20;;;19.67;;
42978;SDS011;28616;44.746;19.678;2023-04-10T12:23:41;34.75;;;18.85;;
42978;SDS011;28616;44.746;19.678;2023-04-10T12:26:11;36.08;;;20.33;;
42978;SDS011;28616;44.746;19.678;2023-04-10T12:28:42;39.33;;;21.65;;
42978;SDS011;28616;44.746;19.678;2023-04-10T12:31:29;39.65;;;22.17;;
42978;SDS011;28616;44.746;19.678;2023-04-10T12:33:56;34.83;;;19.80;;
42978;SDS011;28616;44.746;19.678;2023-04-10T12:36:23;34.97;;;19.73;;
42978;SDS011;28616;44.746;19.678;2023-04-10T12:38:57;38.22;;;19.98;;
42978;SDS011;28616;44.746;19.678;2023-04-10T12:41:25;33.03;;;18.40;;
42978;SDS011;28616;44.746;19.678;2023-04-10T12:44:05;33.58;;;18.40;;
42978;SDS011;28616;44.746;19.678;2023-04-10T12:46:32;39.75;;;19.80;;
42978;SDS011;28616;44.746;19.678;2023-04-10T12:49:10;39.55;;;20.35;;
42978;SDS011;28616;44.746;19.678;2023-04-10T12:51:40;38.47;;;19.83;;
42978;SDS011;28616;44.746;19.678;2023-04-10T12:54:28;34.42;;;18.85;;
42978;SDS011;28616;44.746;19.678;2023-04-10T12:56:55;41.85;;;21.85;;
42978;SDS011;28616;44.746;19.678;2023-04-10T12:59:23;39.70;;;21.42;;
42978;SDS011;28616;44.746;19.678;2023-04-10T13:01:53;46.03;;;23.73;;
42978;SDS011;28616;44.746;19.678;2023-04-10T13:04:19;130.23;;;50.65;;
42978;SDS011;28616;44.746;19.678;2023-04-10T13:06:51;45.47;;;23.05;;
42978;SDS011;28616;44.746;19.678;2023-04-10T13:09:17;42.47;;;20.63;;
42978;SDS011;28616;44.746;19.678;2023-04-10T13:11:43;76.15;;;34.97;;
42978;SDS011;28616;44.746;19.678;2023-04-10T13:14:08;80.38;;;40.88;;
42978;SDS011;28616;44.746;19.678;2023-04-10T13:16:35;50.97;;;26.13;;
42978;SDS011;28616;44.746;19.678;2023-04-10T13:19:01;53.47;;;27.92;;
42978;SDS011;28616;44.746;19.678;2023-04-10T13:21:27;77.60;;;39.10;;
42978;SDS011;28616;44.746;19.678;2023-04-10T13:23:53;73.32;;;37.50;;
42978;SDS011;28616;44.746;19.678;2023-04-10T13:26:22;42.38;;;24.58;;
42978;SDS011;28616;44.746;19.678;2023-04-10T13:28:49;44.88;;;23.17;;
42978;SDS011;28616;44.746;19.678;2023-04-10T13:31:15;34.33;;;18.63;;
42978;SDS011;28616;44.746;19.678;2023-04-10T13:33:44;35.17;;;18.80;;
42978;SDS011;28616;44.746;19.678;2023-04-10T13:38:38;32.10;;;18.30;;
42978;SDS011;28616;44.746;19.678;2023-04-10T13:41:04;32.55;;;18.40;;
42978;SDS011;28616;44.746;19.678;2023-04-10T13:43:30;37.03;;;21.55;;
42978;SDS011;28616;44.746;19.678;2023-04-10T13:45:56;34.90;;;19.90;;
42978;SDS011;28616;44.746;19.678;2023-04-10T13:48:21;32.92;;;18.52;;
42978;SDS011;28616;44.746;19.678;2023-04-10T13:50:47;36.17;;;20.00;;
42978;SDS011;28616;44.746;19.678;2023-04-10T13:53:13;35.20;;;19.52;;
42978;SDS011;28616;44.746;19.678;2023-04-10T13:55:39;32.92;;;18.92;;
42978;SDS011;28616;44.746;19.678;2023-04-10T13:58:08;34.28;;;16.92;;
42978;SDS011;28616;44.746;19.678;2023-04-10T14:00:41;34.33;;;18.55;;
42978;SDS011;28616;44.746;19.678;2023-04-10T14:03:08;37.30;;;20.90;;
42978;SDS011;28616;44.746;19.678;2023-04-10T14:05:36;32.10;;;19.38;;
42978;SDS011;28616;44.746;19.678;2023-04-10T14:08:05;31.58;;;17.52;;
42978;SDS011;28616;44.746;19.678;2023-04-10T14:10:31;32.47;;;18.33;;
42978;SDS011;28616;44.746;19.678;2023-04-10T14:12:57;36.35;;;20.15;;
42978;SDS011;28616;44.746;19.678;2023-04-10T14:15:22;33.45;;;18.95;;
42978;SDS011;28616;44.746;19.678;2023-04-10T14:18:02;35.80;;;18.27;;
42978;SDS011;28616;44.746;19.678;2023-04-10T14:20:28;37.25;;;19.70;;
42978;SDS011;28616;44.746;19.678;2023-04-10T14:22:56;40.47;;;22.33;;
42978;SDS011;28616;44.746;19.678;2023-04-10T14:25:22;33.13;;;18.85;;
42978;SDS011;28616;44.746;19.678;2023-04-10T14:27:48;33.67;;;19.13;;
42978;SDS011;28616;44.746;19.678;2023-04-10T14:30:13;30.38;;;17.20;;
42978;SDS011;28616;44.746;19.678;2023-04-10T14:32:39;34.60;;;20.35;;
42978;SDS011;28616;44.746;19.678;2023-04-10T14:35:05;43.30;;;22.35;;
42978;SDS011;28616;44.746;19.678;2023-04-10T14:37:31;46.67;;;24.25;;
42978;SDS011;28616;44.746;19.678;2023-04-10T14:40:01;59.72;;;28.67;;
42978;SDS011;28616;44.746;19.678;2023-04-10T14:42:32;40.78;;;21.08;;
42978;SDS011;28616;44.746;19.678;2023-04-10T14:45:38;59.40;;;29.45;;
42978;SDS011;28616;44.746;19.678;2023-04-10T14:55:22;83.95;;;34.85;;
42978;SDS011;28616;44.746;19.678;2023-04-10T15:07:40;64.68;;;29.65;;
42978;SDS011;28616;44.746;19.678;2023-04-10T15:10:28;62.55;;;30.77;;
42978;SDS011;28616;44.746;19.678;2023-04-10T15:12:57;58.60;;;30.17;;
42978;SDS011;28616;44.746;19.678;2023-04-10T15:15:22;58.58;;;27.17;;
42978;SDS011;28616;44.746;19.678;2023-04-10T15:17:48;51.72;;;24.17;;